createdAt,value
2022-10-31T00:00:18.404Z,28.95
2022-10-31T00:00:50.213Z,25.05
2022-10-31T00:01:25.979Z,30.20
2022-10-31T00:01:57.299Z,27.92
2022-10-31T00:02:28.648Z,26.52
2022-10-31T00:03:00.202Z,25.15
2022-10-31T00:03:31.718Z,26.98
2022-10-31T00:04:04.016Z,21.52
2022-10-31T00:04:35.392Z,29.58
2022-10-31T00:05:06.984Z,26.73
2022-10-31T00:05:45.182Z,23.70
2022-10-31T00:06:19.017Z,25.02
2022-10-31T00:06:50.289Z,23.83
2022-10-31T00:07:21.592Z,23.77
2022-10-31T00:07:54.009Z,26.83
2022-10-31T00:08:25.302Z,25.98
2022-10-31T00:08:59.401Z,26.42
2022-10-31T00:09:30.721Z,25.25
2022-10-31T00:10:02.024Z,24.13
2022-10-31T00:10:33.288Z,21.38
2022-10-31T00:11:04.730Z,29.25
2022-10-31T00:11:36.119Z,22.05
2022-10-31T00:12:07.478Z,24.08
2022-10-31T00:12:38.794Z,30.10
2022-10-31T00:13:11.118Z,23.20
2022-10-31T00:13:42.449Z,22.65
2022-10-31T00:14:13.733Z,24.88
2022-10-31T00:14:45.027Z,28.58
2022-10-31T00:15:16.570Z,33.10
2022-10-31T00:15:47.868Z,29.73
2022-10-31T00:16:24.743Z,35.17
2022-10-31T00:16:56.043Z,27.77
2022-10-31T00:17:27.496Z,29.10
2022-10-31T00:17:59.909Z,27.65
2022-10-31T00:18:31.376Z,27.40
2022-10-31T00:19:05.367Z,32.40
2022-10-31T00:19:36.695Z,30.42
2022-10-31T00:20:08.590Z,27.23
2022-10-31T00:20:40.084Z,25.80
2022-10-31T00:21:11.372Z,24.00
2022-10-31T00:21:42.665Z,23.73
2022-10-31T00:22:13.988Z,21.90
2022-10-31T00:22:45.270Z,24.40
2022-10-31T00:23:16.559Z,22.05
2022-10-31T00:23:47.902Z,22.98
2022-10-31T00:24:19.215Z,27.08
2022-10-31T00:24:50.480Z,25.88
2022-10-31T00:25:21.875Z,32.60
2022-10-31T00:25:53.192Z,24.35
2022-10-31T00:26:24.488Z,25.90
2022-10-31T00:26:55.760Z,24.83
2022-10-31T00:27:27.039Z,30.83
2022-10-31T00:27:58.819Z,27.10
2022-10-31T00:28:31.318Z,31.63
2022-10-31T00:29:02.854Z,31.30
2022-10-31T00:29:34.132Z,28.05
2022-10-31T00:30:06.083Z,33.40
2022-10-31T00:30:37.354Z,33.13
2022-10-31T00:31:10.483Z,31.55
2022-10-31T00:31:41.817Z,31.05
2022-10-31T00:32:13.092Z,24.80
2022-10-31T00:32:44.431Z,29.02
2022-10-31T00:33:15.711Z,32.75
2022-10-31T00:33:47.078Z,32.05
2022-10-31T00:34:18.363Z,32.55
2022-10-31T00:34:49.658Z,35.33
2022-10-31T00:35:20.958Z,41.30
2022-10-31T00:35:52.267Z,40.60
2022-10-31T00:36:23.684Z,39.45
2022-10-31T00:36:55.032Z,41.78
2022-10-31T00:37:26.342Z,40.80
2022-10-31T00:37:57.653Z,36.67
2022-10-31T00:38:29.107Z,41.13
2022-10-31T00:39:00.439Z,40.33
2022-10-31T00:39:31.748Z,44.78
2022-10-31T00:40:03.360Z,38.75
2022-10-31T00:40:34.629Z,42.50
2022-10-31T00:41:05.899Z,37.92
2022-10-31T00:41:37.435Z,36.20
2022-10-31T00:42:08.752Z,41.03
2022-10-31T00:42:42.506Z,36.38
2022-10-31T00:43:13.849Z,33.80
2022-10-31T00:43:45.647Z,31.90
2022-10-31T00:44:16.956Z,26.92
2022-10-31T00:44:48.265Z,27.40
2022-10-31T00:45:19.671Z,30.67
2022-10-31T00:45:51.461Z,25.05
2022-10-31T00:46:23.950Z,30.80
2022-10-31T00:46:55.212Z,27.40
2022-10-31T00:47:26.511Z,29.08
2022-10-31T00:47:58.024Z,30.42
2022-10-31T00:48:30.108Z,35.33
2022-10-31T00:49:01.397Z,30.95
2022-10-31T00:49:32.703Z,27.20
2022-10-31T00:50:05.779Z,34.88
2022-10-31T00:50:37.580Z,34.97
2022-10-31T00:51:09.291Z,31.45
2022-10-31T00:51:40.566Z,31.58
2022-10-31T00:52:11.878Z,35.70
2022-10-31T00:52:43.190Z,33.08
2022-10-31T00:53:14.528Z,31.67
2022-10-31T00:53:45.792Z,30.10
2022-10-31T00:54:17.075Z,30.38
2022-10-31T00:54:48.367Z,29.60
2022-10-31T00:55:19.640Z,30.80
2022-10-31T00:55:51.413Z,28.73
2022-10-31T00:56:22.700Z,35.85
2022-10-31T00:56:53.971Z,34.80
2022-10-31T00:57:25.308Z,39.03
2022-10-31T00:57:56.786Z,38.53
2022-10-31T00:58:28.274Z,40.90
2022-10-31T00:58:59.557Z,34.10
2022-10-31T00:59:30.832Z,33.47
2022-10-31T01:00:02.118Z,34.50
2022-10-31T01:00:33.490Z,36.13
2022-10-31T01:01:05.583Z,36.75
2022-10-31T01:01:37.018Z,35.53
2022-10-31T01:02:08.625Z,36.20
2022-10-31T01:02:40.129Z,37.35
2022-10-31T01:03:11.551Z,38.53
2022-10-31T01:03:42.890Z,35.10
2022-10-31T01:04:14.211Z,45.40
2022-10-31T01:04:45.494Z,39.78
2022-10-31T01:05:17.145Z,36.85
2022-10-31T01:06:06.767Z,33.42
2022-10-31T01:06:38.135Z,35.00
2022-10-31T01:07:09.773Z,40.20
2022-10-31T01:07:42.299Z,36.08
2022-10-31T01:08:13.615Z,36.28
2022-10-31T01:08:47.474Z,34.88
2022-10-31T01:09:18.957Z,33.92
2022-10-31T01:09:50.266Z,39.40
2022-10-31T01:10:21.552Z,35.08
2022-10-31T01:11:13.569Z,42.22
2022-10-31T01:11:44.856Z,33.35
2022-10-31T01:12:16.274Z,39.08
2022-10-31T01:12:49.544Z,38.83
2022-10-31T01:13:57.138Z,37.60
2022-10-31T01:14:28.445Z,37.70
2022-10-31T01:14:59.720Z,40.13
2022-10-31T01:15:31.006Z,42.90
2022-10-31T01:16:03.962Z,36.03
2022-10-31T01:16:35.304Z,41.95
2022-10-31T01:17:06.581Z,40.00
2022-10-31T01:17:38.148Z,38.88
2022-10-31T01:18:09.446Z,37.67
2022-10-31T01:18:40.777Z,39.10
2022-10-31T01:19:12.047Z,41.45
2022-10-31T01:19:43.365Z,43.75
2022-10-31T01:20:15.897Z,38.53
2022-10-31T01:20:47.183Z,42.13
2022-10-31T01:21:24.386Z,37.83
2022-10-31T01:21:56.312Z,34.42
2022-10-31T01:22:27.611Z,40.65
2022-10-31T01:22:58.918Z,40.58
2022-10-31T01:23:30.654Z,36.40
2022-10-31T01:24:04.920Z,38.60
2022-10-31T01:24:36.252Z,46.08
2022-10-31T01:25:09.350Z,36.20
2022-10-31T01:25:41.148Z,35.67
2022-10-31T01:26:15.337Z,41.72
2022-10-31T01:26:46.630Z,29.80
2022-10-31T01:27:17.925Z,36.95
2022-10-31T01:27:49.205Z,37.33
2022-10-31T01:28:20.570Z,34.72
2022-10-31T01:28:53.598Z,39.72
2022-10-31T01:29:24.867Z,48.05
2022-10-31T01:29:56.136Z,37.10
2022-10-31T01:30:27.424Z,36.38
2022-10-31T01:31:09.629Z,36.80
2022-10-31T01:31:40.938Z,35.33
2022-10-31T01:32:12.457Z,34.15
2022-10-31T01:32:43.732Z,35.13
2022-10-31T01:33:15.007Z,31.92
2022-10-31T01:33:46.730Z,35.17
2022-10-31T01:34:18.113Z,32.47
2022-10-31T01:34:49.410Z,37.13
2022-10-31T01:35:20.693Z,34.42
2022-10-31T01:35:52.025Z,33.20
2022-10-31T01:36:24.689Z,28.50
2022-10-31T01:36:55.980Z,30.85
2022-10-31T01:37:27.248Z,32.88
2022-10-31T01:37:58.536Z,29.58
2022-10-31T01:38:31.047Z,32.70
2022-10-31T01:39:05.898Z,31.90
2022-10-31T01:39:37.217Z,28.77
2022-10-31T01:40:09.284Z,28.48
2022-10-31T01:40:40.567Z,32.22
2022-10-31T01:41:14.736Z,35.20
2022-10-31T01:41:48.948Z,31.50
2022-10-31T01:42:22.495Z,35.10
2022-10-31T01:42:53.759Z,33.95
2022-10-31T01:43:25.086Z,33.38
2022-10-31T01:43:59.311Z,31.13
2022-10-31T01:44:30.524Z,31.55
2022-10-31T01:45:02.658Z,34.15
2022-10-31T01:45:34.109Z,34.15
2022-10-31T01:46:05.412Z,32.70
2022-10-31T01:46:41.799Z,35.63
2022-10-31T01:47:17.631Z,35.40
2022-10-31T01:47:50.244Z,32.85
2022-10-31T01:48:27.288Z,39.42
2022-10-31T01:49:02.308Z,35.53
2022-10-31T01:49:41.092Z,36.78
2022-10-31T01:50:22.587Z,34.30
2022-10-31T01:50:55.703Z,42.22
2022-10-31T01:51:31.149Z,40.05
2022-10-31T01:52:08.803Z,40.00
2022-10-31T01:52:45.549Z,36.80
2022-10-31T01:53:17.570Z,44.25
2022-10-31T01:53:52.197Z,36.88
2022-10-31T01:54:27.741Z,37.30
2022-10-31T01:55:07.586Z,35.58
2022-10-31T01:55:45.816Z,37.22
2022-10-31T01:56:18.432Z,35.38
2022-10-31T01:56:53.161Z,37.55
2022-10-31T01:57:25.773Z,30.23
2022-10-31T01:58:03.168Z,33.83
2022-10-31T01:58:35.146Z,31.60
2022-10-31T01:59:11.937Z,30.77
2022-10-31T01:59:47.665Z,30.35
2022-10-31T02:00:20.931Z,29.75
2022-10-31T02:00:59.620Z,26.55
2022-10-31T02:01:33.525Z,31.40
2022-10-31T02:02:04.989Z,32.53
2022-10-31T02:02:36.824Z,36.00
2022-10-31T02:03:08.186Z,37.70
2022-10-31T02:03:39.531Z,36.47
2022-10-31T02:04:11.007Z,34.97
2022-10-31T02:04:42.790Z,40.47
2022-10-31T02:05:18.497Z,39.15
2022-10-31T02:05:50.885Z,32.55
2022-10-31T02:06:41.058Z,33.70
2022-10-31T02:07:28.036Z,31.85
2022-10-31T02:08:06.322Z,32.65
2022-10-31T02:08:38.790Z,28.55
2022-10-31T02:09:10.110Z,32.22
2022-10-31T02:09:43.193Z,30.48
2022-10-31T02:10:14.865Z,30.23
2022-10-31T02:10:46.180Z,31.85
2022-10-31T02:11:17.480Z,37.60
2022-10-31T02:11:48.770Z,35.20
2022-10-31T02:12:20.919Z,31.02
2022-10-31T02:12:59.020Z,37.05
2022-10-31T02:13:30.910Z,35.88
2022-10-31T02:14:05.642Z,28.40
2022-10-31T02:14:38.387Z,28.95
2022-10-31T02:15:10.396Z,31.63
2022-10-31T02:15:43.655Z,38.92
2022-10-31T02:16:14.944Z,33.42
2022-10-31T02:16:46.219Z,26.60
2022-10-31T02:17:17.591Z,35.08
2022-10-31T02:17:49.040Z,32.80
2022-10-31T02:18:21.348Z,29.90
2022-10-31T02:18:52.790Z,33.25
2022-10-31T02:19:33.057Z,33.53
2022-10-31T02:20:16.923Z,32.60
2022-10-31T02:20:48.237Z,27.90
2022-10-31T02:21:27.663Z,29.35
2022-10-31T02:22:16.552Z,32.70
2022-10-31T02:23:11.649Z,29.95
2022-10-31T02:24:06.742Z,27.80
2022-10-31T02:24:47.114Z,29.58
2022-10-31T02:26:27.272Z,28.70
2022-10-31T02:27:09.554Z,36.22
2022-10-31T02:27:49.726Z,29.67
2022-10-31T02:28:58.403Z,33.17
2022-10-31T02:29:48.249Z,29.08
2022-10-31T02:30:23.705Z,29.88
2022-10-31T02:31:16.869Z,26.27
2022-10-31T02:32:01.914Z,30.45
2022-10-31T02:32:44.288Z,26.65
2022-10-31T02:33:39.848Z,29.00
2022-10-31T02:34:34.349Z,27.40
2022-10-31T02:35:18.050Z,33.85
2022-10-31T02:36:17.401Z,29.67
2022-10-31T02:37:13.915Z,30.58
2022-10-31T02:37:54.779Z,34.22
2022-10-31T02:38:36.428Z,35.88
2022-10-31T02:39:23.314Z,32.70
2022-10-31T02:40:03.939Z,32.97
2022-10-31T02:40:45.064Z,28.98
2022-10-31T02:41:30.464Z,32.83
2022-10-31T02:42:10.466Z,35.92
2022-10-31T02:43:01.249Z,39.53
2022-10-31T02:43:44.048Z,27.48
2022-10-31T02:44:29.292Z,30.58
2022-10-31T02:45:28.683Z,30.88
2022-10-31T02:46:09.580Z,33.35
2022-10-31T02:46:49.533Z,27.65
2022-10-31T02:47:28.116Z,28.65
2022-10-31T02:48:04.416Z,32.70
2022-10-31T02:48:40.004Z,36.67
2022-10-31T02:49:18.583Z,33.67
2022-10-31T02:49:58.231Z,29.40
2022-10-31T02:50:35.473Z,28.23
2022-10-31T02:51:07.253Z,29.25
2022-10-31T02:51:39.988Z,27.30
2022-10-31T02:52:18.021Z,29.33
2022-10-31T02:52:53.316Z,27.92
2022-10-31T02:53:24.746Z,34.60
2022-10-31T02:53:56.073Z,36.33
2022-10-31T02:54:28.844Z,37.33
2022-10-31T02:55:18.622Z,41.75
2022-10-31T02:55:57.233Z,35.58
2022-10-31T02:56:28.531Z,34.85
2022-10-31T02:57:06.967Z,25.95
2022-10-31T02:57:39.799Z,27.00
2022-10-31T02:58:16.228Z,24.20
2022-10-31T02:59:04.682Z,27.85
2022-10-31T02:59:41.433Z,27.55
2022-10-31T03:00:13.084Z,30.13
2022-10-31T03:01:22.936Z,29.45
2022-10-31T03:02:16.121Z,29.63
2022-10-31T03:02:58.858Z,31.08
2022-10-31T03:04:17.014Z,26.77
2022-10-31T03:05:08.782Z,29.10
2022-10-31T03:05:58.090Z,28.30
2022-10-31T03:06:35.269Z,31.67
2022-10-31T03:07:16.905Z,30.33
2022-10-31T03:07:57.145Z,32.67
2022-10-31T03:08:36.655Z,26.35
2022-10-31T03:09:22.918Z,27.73
2022-10-31T03:10:19.684Z,27.08
2022-10-31T03:11:00.036Z,24.25
2022-10-31T03:11:44.094Z,27.95
2022-10-31T03:12:19.132Z,29.80
2022-10-31T03:13:04.779Z,25.90
2022-10-31T03:13:51.216Z,28.13
2022-10-31T03:14:30.882Z,31.50
2022-10-31T03:15:15.081Z,27.05
2022-10-31T03:15:51.346Z,29.00
2022-10-31T03:16:44.762Z,28.58
2022-10-31T03:17:25.645Z,31.00
2022-10-31T03:18:02.654Z,28.42
2022-10-31T03:18:40.102Z,28.63
2022-10-31T03:19:17.341Z,29.35
2022-10-31T03:19:53.836Z,34.35
2022-10-31T03:20:30.844Z,30.05
2022-10-31T03:21:07.788Z,32.20
2022-10-31T03:22:17.478Z,28.85
2022-10-31T03:22:48.851Z,29.20
2022-10-31T03:23:21.964Z,38.15
2022-10-31T03:23:55.617Z,41.42
2022-10-31T03:24:33.416Z,39.80
2022-10-31T03:25:05.822Z,34.92
2022-10-31T03:25:38.416Z,34.28
2022-10-31T03:26:12.285Z,39.42
2022-10-31T03:26:49.054Z,33.50
2022-10-31T03:27:24.498Z,38.42
2022-10-31T03:27:58.364Z,40.33
2022-10-31T03:28:36.543Z,43.08
2022-10-31T03:29:11.193Z,38.45
2022-10-31T03:29:45.346Z,38.42
2022-10-31T03:30:17.976Z,44.80
2022-10-31T03:30:50.544Z,40.50
2022-10-31T03:31:26.389Z,42.38
2022-10-31T03:32:07.601Z,43.05
2022-10-31T03:32:49.943Z,42.92
2022-10-31T03:33:29.750Z,42.13
2022-10-31T03:34:02.460Z,39.70
2022-10-31T03:34:36.381Z,40.28
2022-10-31T03:35:10.872Z,39.03
2022-10-31T03:35:45.541Z,36.55
2022-10-31T03:36:18.649Z,37.92
2022-10-31T03:36:53.203Z,37.67
2022-10-31T03:37:26.673Z,37.95
2022-10-31T03:38:04.095Z,40.88
2022-10-31T03:38:41.452Z,38.03
2022-10-31T03:39:18.053Z,40.53
2022-10-31T03:39:50.605Z,39.15
2022-10-31T03:40:25.821Z,36.90
2022-10-31T03:41:03.987Z,40.80
2022-10-31T03:41:49.250Z,36.63
2022-10-31T03:42:26.024Z,30.15
2022-10-31T03:43:03.225Z,32.28
2022-10-31T03:43:43.518Z,39.88
2022-10-31T03:44:22.269Z,30.67
2022-10-31T03:45:00.395Z,32.42
2022-10-31T03:45:32.002Z,31.85
2022-10-31T03:46:04.280Z,33.70
2022-10-31T03:46:35.812Z,37.58
2022-10-31T03:47:07.560Z,30.05
2022-10-31T03:47:39.844Z,33.28
2022-10-31T03:48:11.565Z,29.98
2022-10-31T03:48:42.891Z,37.53
2022-10-31T03:49:15.361Z,32.65
2022-10-31T03:49:46.683Z,37.25
2022-10-31T03:50:18.995Z,27.58
2022-10-31T03:51:02.797Z,39.90
2022-10-31T03:51:50.556Z,30.48
2022-10-31T03:52:48.133Z,29.92
2022-10-31T03:53:41.824Z,31.13
2022-10-31T03:54:25.174Z,27.40
2022-10-31T03:55:03.275Z,32.17
2022-10-31T03:55:42.475Z,32.45
2022-10-31T03:56:22.093Z,29.67
2022-10-31T03:56:58.180Z,33.92
2022-10-31T03:57:40.197Z,33.67
2022-10-31T03:59:18.513Z,32.17
2022-10-31T03:59:56.917Z,26.58
2022-10-31T04:00:28.369Z,28.70
2022-10-31T04:01:03.031Z,26.95
2022-10-31T04:01:39.656Z,28.95
2022-10-31T04:02:17.663Z,24.25
2022-10-31T04:03:10.005Z,31.25
2022-10-31T04:03:42.165Z,30.90
2022-10-31T04:04:17.828Z,33.33
2022-10-31T04:04:50.079Z,24.38
2022-10-31T04:05:22.286Z,25.60
2022-10-31T04:05:57.575Z,31.27
2022-10-31T04:06:30.072Z,28.25
2022-10-31T04:07:02.674Z,28.38
2022-10-31T04:07:39.737Z,27.95
2022-10-31T04:08:16.329Z,31.20
2022-10-31T04:08:58.475Z,31.83
2022-10-31T04:09:33.347Z,32.30
2022-10-31T04:10:08.762Z,30.13
2022-10-31T04:10:41.682Z,29.38
2022-10-31T04:11:14.694Z,28.83
2022-10-31T04:11:52.732Z,31.73
2022-10-31T04:12:26.067Z,28.52
2022-10-31T04:13:08.960Z,33.78
2022-10-31T04:13:41.714Z,37.22
2022-10-31T04:14:13.159Z,32.22
2022-10-31T04:14:48.516Z,33.55
2022-10-31T04:15:20.875Z,37.97
2022-10-31T04:15:53.584Z,32.20
2022-10-31T04:16:25.877Z,31.08
2022-10-31T04:16:57.407Z,28.65
2022-10-31T04:17:32.637Z,34.55
2022-10-31T04:18:06.083Z,31.88
2022-10-31T04:18:37.509Z,33.90
2022-10-31T04:19:08.833Z,37.30
2022-10-31T04:19:40.283Z,36.80
2022-10-31T04:20:11.875Z,36.72
2022-10-31T04:20:43.317Z,37.00
2022-10-31T04:21:14.588Z,33.72
2022-10-31T04:21:45.966Z,28.98
2022-10-31T04:22:17.326Z,29.20
2022-10-31T04:22:48.597Z,31.45
2022-10-31T04:23:23.217Z,28.88
2022-10-31T04:23:54.535Z,29.45
2022-10-31T04:24:25.829Z,30.52
2022-10-31T04:24:57.113Z,30.90
2022-10-31T04:25:28.704Z,26.08
2022-10-31T04:26:00.115Z,29.10
2022-10-31T04:26:31.387Z,27.67
2022-10-31T04:27:02.733Z,28.67
2022-10-31T04:27:34.032Z,27.90
2022-10-31T04:28:05.532Z,24.13
2022-10-31T04:28:37.226Z,20.95
2022-10-31T04:29:08.533Z,24.20
2022-10-31T04:29:39.797Z,24.80
2022-10-31T04:30:11.395Z,29.80
2022-10-31T04:30:42.690Z,25.58
2022-10-31T04:31:15.262Z,30.02
2022-10-31T04:31:46.533Z,29.08
2022-10-31T04:32:18.513Z,26.52
2022-10-31T04:32:49.858Z,26.88
2022-10-31T04:33:21.434Z,31.27
2022-10-31T04:33:52.696Z,24.25
2022-10-31T04:34:24.005Z,24.73
2022-10-31T04:34:55.288Z,26.10
2022-10-31T04:35:26.806Z,26.90
2022-10-31T04:35:58.072Z,29.77
2022-10-31T04:36:29.348Z,22.08
2022-10-31T04:37:00.641Z,28.35
2022-10-31T04:37:31.937Z,27.10
2022-10-31T04:38:03.325Z,25.65
2022-10-31T04:38:34.645Z,29.70
2022-10-31T04:39:05.937Z,31.13
2022-10-31T04:39:37.263Z,26.88
2022-10-31T04:40:09.152Z,26.55
2022-10-31T04:40:40.475Z,23.98
2022-10-31T04:41:11.756Z,31.73
2022-10-31T04:41:43.020Z,29.75
2022-10-31T04:42:14.352Z,24.58
2022-10-31T04:42:45.641Z,25.23
2022-10-31T04:43:17.052Z,35.13
2022-10-31T04:43:48.371Z,25.83
2022-10-31T04:44:19.670Z,25.70
2022-10-31T04:44:50.939Z,26.35
2022-10-31T04:45:22.249Z,25.38
2022-10-31T04:45:53.562Z,26.05
2022-10-31T04:46:24.830Z,26.55
2022-10-31T04:46:56.118Z,24.42
2022-10-31T04:47:27.414Z,19.90
2022-10-31T04:47:58.911Z,22.90
2022-10-31T04:48:30.554Z,25.60
2022-10-31T04:49:01.884Z,27.65
2022-10-31T04:49:33.214Z,27.45
2022-10-31T04:50:04.826Z,30.42
2022-10-31T04:50:36.224Z,28.88
2022-10-31T04:51:07.504Z,30.20
2022-10-31T04:51:38.778Z,28.88
2022-10-31T04:52:10.144Z,31.75
2022-10-31T04:52:45.411Z,31.55
2022-10-31T04:53:16.693Z,27.92
2022-10-31T04:53:47.985Z,28.33
2022-10-31T04:54:19.264Z,26.85
2022-10-31T04:54:50.523Z,33.63
2022-10-31T04:55:21.853Z,39.15
2022-10-31T04:55:53.211Z,35.88
2022-10-31T04:56:24.550Z,40.75
2022-10-31T04:56:55.822Z,31.88
2022-10-31T04:57:27.147Z,32.10
2022-10-31T04:57:59.060Z,33.90
2022-10-31T04:58:30.649Z,39.70
2022-10-31T04:59:02.013Z,37.80
2022-10-31T04:59:33.305Z,35.35
2022-10-31T05:00:04.974Z,36.92
2022-10-31T05:00:36.247Z,37.95
2022-10-31T05:01:07.664Z,29.77
2022-10-31T05:01:39.127Z,36.15
2022-10-31T05:02:10.677Z,36.88
2022-10-31T05:02:49.329Z,32.03
2022-10-31T05:03:20.722Z,28.77
2022-10-31T05:03:52.100Z,34.63
2022-10-31T05:04:23.555Z,33.47
2022-10-31T05:04:54.883Z,34.25
2022-10-31T05:05:29.607Z,36.00
2022-10-31T05:06:00.897Z,37.55
2022-10-31T05:06:32.188Z,39.95
2022-10-31T05:07:03.466Z,35.97
2022-10-31T05:07:39.270Z,38.35
2022-10-31T05:08:10.596Z,34.10
2022-10-31T05:08:41.890Z,36.05
2022-10-31T05:09:13.188Z,39.78
2022-10-31T05:09:44.486Z,43.92
2022-10-31T05:10:19.357Z,37.58
2022-10-31T05:10:50.633Z,35.10
2022-10-31T05:11:21.911Z,28.60
2022-10-31T05:11:53.246Z,31.30
2022-10-31T05:12:24.508Z,35.97
2022-10-31T05:13:01.641Z,29.08
2022-10-31T05:13:33.393Z,29.27
2022-10-31T05:14:04.681Z,25.98
2022-10-31T05:14:35.974Z,30.83
2022-10-31T05:15:07.598Z,28.08
2022-10-31T05:15:38.973Z,25.75
2022-10-31T05:16:10.314Z,28.05
2022-10-31T05:16:41.626Z,24.00
2022-10-31T05:17:12.905Z,25.45
2022-10-31T05:17:44.877Z,28.20
2022-10-31T05:18:16.163Z,34.42
2022-10-31T05:18:47.475Z,29.00
2022-10-31T05:19:18.761Z,32.20
2022-10-31T05:19:50.066Z,27.85
2022-10-31T05:20:26.602Z,29.67
2022-10-31T05:20:57.882Z,31.05
2022-10-31T05:21:29.151Z,43.42
2022-10-31T05:22:00.449Z,34.78
2022-10-31T05:22:31.761Z,35.83
2022-10-31T05:23:03.061Z,35.25
2022-10-31T05:23:34.349Z,37.35
2022-10-31T05:24:05.914Z,38.45
2022-10-31T05:24:37.377Z,36.55
2022-10-31T05:25:09.025Z,33.50
2022-10-31T05:25:41.575Z,36.47
2022-10-31T05:26:12.868Z,38.88
2022-10-31T05:26:44.147Z,34.95
2022-10-31T05:27:15.460Z,42.97
2022-10-31T05:27:48.879Z,39.33
2022-10-31T05:28:20.211Z,38.65
2022-10-31T05:28:51.568Z,38.92
2022-10-31T05:29:22.854Z,36.22
2022-10-31T05:29:54.239Z,45.53
2022-10-31T05:30:28.833Z,39.58
2022-10-31T05:31:00.130Z,36.47
2022-10-31T05:31:31.416Z,39.65
2022-10-31T05:32:02.730Z,40.72
2022-10-31T05:32:41.372Z,35.70
2022-10-31T05:33:12.762Z,40.50
2022-10-31T05:33:44.032Z,37.55
2022-10-31T05:34:15.307Z,41.33
2022-10-31T05:34:46.630Z,38.03
2022-10-31T05:35:30.144Z,35.15
2022-10-31T05:36:01.479Z,31.23
2022-10-31T05:36:32.757Z,36.17
2022-10-31T05:37:04.035Z,38.97
2022-10-31T05:37:36.463Z,31.30
2022-10-31T05:38:07.723Z,38.85
2022-10-31T05:38:38.990Z,39.42
2022-10-31T05:39:10.718Z,33.67
2022-10-31T05:39:42.006Z,37.08
2022-10-31T05:40:14.909Z,39.30
2022-10-31T05:40:46.257Z,40.83
2022-10-31T05:41:17.543Z,38.45
2022-10-31T05:41:48.928Z,41.80
2022-10-31T05:42:20.197Z,35.97
2022-10-31T05:42:52.941Z,43.45
2022-10-31T05:43:24.541Z,37.75
2022-10-31T05:43:55.835Z,42.42
2022-10-31T05:44:27.196Z,39.55
2022-10-31T05:44:58.534Z,42.67
2022-10-31T05:45:29.853Z,39.05
2022-10-31T05:46:01.165Z,40.55
2022-10-31T05:47:08.687Z,35.83
2022-10-31T05:47:40.154Z,35.35
2022-10-31T05:48:14.017Z,43.63
2022-10-31T05:48:45.353Z,43.63
2022-10-31T05:49:18.263Z,37.38
2022-10-31T05:49:49.781Z,34.85
2022-10-31T05:50:21.633Z,31.83
2022-10-31T05:50:53.149Z,35.72
2022-10-31T05:51:24.438Z,36.60
2022-10-31T05:51:55.720Z,33.97
2022-10-31T05:52:27.052Z,36.00
2022-10-31T05:53:03.933Z,35.05
2022-10-31T05:53:35.213Z,31.27
2022-10-31T05:54:06.482Z,38.13
2022-10-31T05:54:37.780Z,39.50
2022-10-31T05:55:09.252Z,37.58
2022-10-31T05:55:44.199Z,39.38
2022-10-31T05:56:15.504Z,33.03
2022-10-31T05:56:46.793Z,33.72
2022-10-31T05:57:18.149Z,43.50
2022-10-31T05:57:49.436Z,31.58
2022-10-31T05:58:20.730Z,33.63
2022-10-31T05:58:52.053Z,28.50
2022-10-31T05:59:23.550Z,36.35
2022-10-31T05:59:55.311Z,31.83
2022-10-31T06:00:27.912Z,39.42
2022-10-31T06:00:59.205Z,29.95
2022-10-31T06:01:30.588Z,31.98
2022-10-31T06:02:01.965Z,32.15
2022-10-31T06:02:35.294Z,31.33
2022-10-31T06:03:40.952Z,33.22
2022-10-31T06:04:12.330Z,32.97
2022-10-31T06:04:43.720Z,33.53
2022-10-31T06:05:15.863Z,36.20
2022-10-31T06:05:50.702Z,30.85
2022-10-31T06:06:25.385Z,33.40
2022-10-31T06:06:58.230Z,30.65
2022-10-31T06:07:34.085Z,30.45
2022-10-31T06:08:05.666Z,38.05
2022-10-31T06:08:37.409Z,31.73
2022-10-31T06:09:08.750Z,29.52
2022-10-31T06:09:40.033Z,29.73
2022-10-31T06:10:11.629Z,28.77
2022-10-31T06:10:43.087Z,32.42
2022-10-31T06:11:14.359Z,35.47
2022-10-31T06:11:45.637Z,30.55
2022-10-31T06:12:16.917Z,26.50
2022-10-31T06:12:48.642Z,29.10
2022-10-31T06:13:20.102Z,33.13
2022-10-31T06:13:51.390Z,31.88
2022-10-31T06:14:22.693Z,30.50
2022-10-31T06:14:54.001Z,31.92
2022-10-31T06:15:25.557Z,38.35
2022-10-31T06:15:56.836Z,32.45
2022-10-31T06:16:28.564Z,33.83
2022-10-31T06:16:59.873Z,27.35
2022-10-31T06:17:31.180Z,31.33
2022-10-31T06:18:04.870Z,31.02
2022-10-31T06:18:36.166Z,30.05
2022-10-31T06:19:07.446Z,30.40
2022-10-31T06:19:38.761Z,31.63
2022-10-31T06:20:10.886Z,28.70
2022-10-31T06:20:42.153Z,30.92
2022-10-31T06:21:16.352Z,29.52
2022-10-31T06:21:50.290Z,29.65
2022-10-31T06:22:21.583Z,32.47
2022-10-31T06:22:52.929Z,27.85
2022-10-31T06:23:24.295Z,32.65
2022-10-31T06:23:55.576Z,27.90
2022-10-31T06:24:26.844Z,31.23
2022-10-31T06:24:58.317Z,29.25
2022-10-31T06:25:29.686Z,25.75
2022-10-31T06:26:00.964Z,30.20
2022-10-31T06:26:32.260Z,26.63
2022-10-31T06:27:03.644Z,28.63
2022-10-31T06:27:34.923Z,31.58
2022-10-31T06:28:06.609Z,32.60
2022-10-31T06:28:37.922Z,31.65
2022-10-31T06:29:09.189Z,27.23
2022-10-31T06:29:40.470Z,23.08
2022-10-31T06:30:12.228Z,29.08
2022-10-31T06:30:43.601Z,27.80
2022-10-31T06:31:14.930Z,26.95
2022-10-31T06:31:46.262Z,26.40
2022-10-31T06:32:17.757Z,30.45
2022-10-31T06:32:50.322Z,29.67
2022-10-31T06:33:21.673Z,29.40
2022-10-31T06:33:53.015Z,27.85
2022-10-31T06:34:24.337Z,30.00
2022-10-31T06:34:55.669Z,29.58
2022-10-31T06:35:26.940Z,27.90
2022-10-31T06:35:58.449Z,29.38
2022-10-31T06:36:29.724Z,28.17
2022-10-31T06:37:01.023Z,26.15
2022-10-31T06:37:32.306Z,24.65
2022-10-31T06:38:04.083Z,27.05
2022-10-31T06:38:35.800Z,23.50
2022-10-31T06:39:07.210Z,27.33
2022-10-31T06:39:38.706Z,29.67
2022-10-31T06:40:10.646Z,24.05
2022-10-31T06:40:42.162Z,30.40
2022-10-31T06:41:13.486Z,27.02
2022-10-31T06:41:44.780Z,27.85
2022-10-31T06:42:17.267Z,26.00
2022-10-31T06:42:48.630Z,25.08
2022-10-31T06:43:20.732Z,25.25
2022-10-31T06:43:52.007Z,27.08
2022-10-31T06:44:23.344Z,25.17
2022-10-31T06:44:54.653Z,29.08
2022-10-31T06:45:26.737Z,21.52
2022-10-31T06:45:58.329Z,21.27
2022-10-31T06:46:29.621Z,19.58
2022-10-31T06:47:00.896Z,22.13
2022-10-31T06:47:32.441Z,21.48
2022-10-31T06:48:16.497Z,26.30
2022-10-31T06:48:48.855Z,27.05
2022-10-31T06:49:20.169Z,24.48
2022-10-31T06:49:51.485Z,26.30
2022-10-31T06:50:23.802Z,27.95
2022-10-31T06:50:59.781Z,23.25
2022-10-31T06:51:31.343Z,24.73
2022-10-31T06:52:02.753Z,23.00
2022-10-31T06:52:36.930Z,25.75
2022-10-31T06:53:45.153Z,29.27
2022-10-31T06:54:16.848Z,26.73
2022-10-31T06:54:48.141Z,22.50
2022-10-31T06:55:21.484Z,23.58
2022-10-31T06:55:52.868Z,23.58
2022-10-31T06:56:24.154Z,27.05
2022-10-31T06:56:55.422Z,22.10
2022-10-31T06:57:26.712Z,21.52
2022-10-31T06:58:03.146Z,22.75
2022-10-31T06:58:34.854Z,26.20
2022-10-31T06:59:06.188Z,21.35
2022-10-31T06:59:37.502Z,20.70
2022-10-31T07:00:09.306Z,24.83
2022-10-31T07:00:40.705Z,19.15
2022-10-31T07:01:12.171Z,20.85
2022-10-31T07:01:43.734Z,21.08
2022-10-31T07:02:15.209Z,22.73
2022-10-31T07:02:58.529Z,22.17
2022-10-31T07:03:29.865Z,22.52
2022-10-31T07:04:01.160Z,23.77
2022-10-31T07:04:32.541Z,24.50
2022-10-31T07:05:04.096Z,23.20
2022-10-31T07:05:35.383Z,21.58
2022-10-31T07:06:06.800Z,21.70
2022-10-31T07:06:38.132Z,21.63
2022-10-31T07:07:09.440Z,21.25
2022-10-31T07:07:40.728Z,21.13
2022-10-31T07:08:14.778Z,24.35
2022-10-31T07:08:46.166Z,21.45
2022-10-31T07:09:17.461Z,25.58
2022-10-31T07:09:48.751Z,22.42
2022-10-31T07:10:20.190Z,23.65
2022-10-31T07:10:56.446Z,24.38
2022-10-31T07:11:27.733Z,25.02
2022-10-31T07:11:59.165Z,23.05
2022-10-31T07:12:30.436Z,19.05
2022-10-31T07:13:07.931Z,21.13
2022-10-31T07:13:39.215Z,22.83
2022-10-31T07:14:10.490Z,23.17
2022-10-31T07:14:41.845Z,22.83
2022-10-31T07:15:13.428Z,22.50
2022-10-31T07:15:44.914Z,23.38
2022-10-31T07:16:16.203Z,26.85
2022-10-31T07:16:51.778Z,21.50
2022-10-31T07:17:29.738Z,21.48
2022-10-31T07:18:02.362Z,21.58
2022-10-31T07:18:34.890Z,21.08
2022-10-31T07:19:06.197Z,24.50
2022-10-31T07:19:37.570Z,23.52
2022-10-31T07:20:09.501Z,22.85
2022-10-31T07:20:40.913Z,20.08
2022-10-31T07:21:12.292Z,24.02